KONPKCVO

Guest
Details From KONP - Newport Muni
To KCVO - Corvallis Muni
Flight Number -
Tags Routegen Generated
Created
Modified
Stats Distance 48 nm / 88 km
Max Altitude 100 ft / 30 m
Waypoints 5
Social Downloads 0
Likes 0
Share VATSIM

Download

Looking for another format? Having issues loading an existing format? Contact us
Advertisement - Login to hide

Notes

Departing runway 17 KONP. Arriving runway 18 KCVO.

Route

KONP +44.50_-124.05 +44.57_-123.66 +44.63_-123.27 KCVO

ID Type Via Altitude Latitude Longitude Leg Dist Tot Dist Heading (true) Name
O KONP APT - 100 ft / 30 m 44.57205˚ -124.05841˚ - 0 nm - -
+44.50_-124.05 DME - 100 ft / 30 m 44.49976˚ -124.05369˚ 4 nm 4 nm 177° / 177° -
+44.57_-123.66 DME - 100 ft / 30 m 44.56542˚ -123.66148˚ 17 nm 21 nm 77° / 77° -
+44.63_-123.27 DME - 100 ft / 30 m 44.63106˚ -123.26927˚ 17 nm 38 nm 77° / 77° -
O KCVO APT - 0 ft / 0 m 44.48739˚ -123.29382˚ 8 nm 47 nm 187° / 187° -

Altitude Profile

Advertisement - Login to hide

KONP

Details ICAO KONP
Name Newport Muni
Region United States
Timezone America/Los_Angeles (UTC-8.0)
Stats Elevation 160 ft / 49 m (AMSL)
Location 44.580776° -124.057500°
Runways 2
Magnetic Variation 15.286° E

METAR

KONP 160915Z AUTO 10003KT 10SM SCT026 SCT033 SCT049 04/03 A3040 RMK AO2

Decode

TAF

TAF KONP 160529Z 1606/1706 VRB04KT P6SM VCSH SCT025 BKN035 BKN050 FM161900 VRB03KT P6SM VCSH BKN025 OVC050

Decode

Departure Runways

ID Width Length Bearing (true) Bearing (mag) Surface Threshold Offset Overrun Length
02 75 ft / 23 m 3,041 ft / 927 m 37.34° 22.05° Asphalt 0 ft / 0 m 0 ft / 0 m
16 151 ft / 46 m 5,438 ft / 1,657 m 177.36° 162.07° Asphalt 0 ft / 0 m 0 ft / 0 m
20 75 ft / 23 m 3,041 ft / 927 m 217.35° 202.06° Asphalt 0 ft / 0 m 400 ft / 122 m
34 151 ft / 46 m 5,438 ft / 1,657 m 357.36° 342.07° Asphalt 299 ft / 91 m 0 ft / 0 m

KCVO

Details ICAO KCVO
Name CORVALLIS MUNI
Region United States
Timezone America/Los_Angeles (UTC-8.0)
Stats Elevation 246 ft / 75 m (AMSL)
Location 44.497677° -123.288546°
Runways 2
Magnetic Variation 15.152° E

METAR

KCVO 160914Z AUTO 00000KT 1/2SM FZFG BKN001 M03/M03 A3038 RMK AO2 FZRANO RVRNO

Decode

TAF

Not found

Destination Runways

ID Width Length Bearing (true) Bearing (mag) Surface Threshold Offset Overrun Length
09 75 ft / 23 m 3,540 ft / 1,079 m 112.18° 97.03° Asphalt 0 ft / 0 m 364 ft / 111 m
17 151 ft / 46 m 5,904 ft / 1,799 m 187.16° 172.01° Asphalt 0 ft / 0 m 0 ft / 0 m
27 75 ft / 23 m 3,540 ft / 1,079 m 292.19° 277.04° Asphalt 0 ft / 0 m 0 ft / 0 m
35 151 ft / 46 m 5,904 ft / 1,799 m 7.16° 352.01° Asphalt 0 ft / 0 m 197 ft / 60 m

Approach Navaids

Runway Type Ident Frequency Range Bearing (true) Bearing (mag) Slope Elevation
17 Localiser ICVO 111.90 MHz 18 nm / 33 km 187.01° 171.86° - 246 ft / 75 m (AMSL)
17 Glidescope ICVO 111.90 MHz 10 nm / 19 km 187.16° 172.01° 3.00° 242 ft / 74 m (AMSL)

Popular Alternatives